Byeoryang-dong, South Korea

7:09 AM KST on July 20, 2019 (GMT +0900)
Seoul E AB | | Change Station

Elev 66 ft 37.43 °N, 127.12 °E | Updated 9 minutes ago

Mostly Cloudy
Mostly Cloudy
81 °F
Feels Like 85 °F
N
2
Wind Variable Wind from West

Today
High -- | Low -- °F
--% Chance of Precip.
Yesterday
High -- | Low -- °F
Precip. -- in
Pressure 29.64 in
Visibility 6.2 miles
Clouds Few 4000 ft
Mostly Cloudy 10000 ft
Mostly Cloudy 18000 ft
Heat Index 85 °F
Dew Point 72 °F
Humidity 74%
Rainfall 0.00 in
Snow Depth Not available.
5:26 AM 7:50 PM
Waning Gibbous, 92% visible
METAR RKSM 192200Z 27002KT 9999 -RA FEW040 BKN100 BKN180 27/22 A2964
Pressure 29.64 in
Visibility 6.2 miles
Clouds Few 4000 ft
Mostly Cloudy 10000 ft
Mostly Cloudy 18000 ft
Heat Index 85 °F
Dew Point 72 °F
Humidity 74%
Rainfall 0.00 in
Snow Depth Not available.
5:26 AM 7:50 PM
Waning Gibbous, 92% visible
METAR RKSM 192200Z 27002KT 9999 -RA FEW040 BKN100 BKN180 27/22 A2964

Get Severe Weather Alerts

Thanks for signing up!

Be on the lookout for a verification email in your inbox.

You'll start receiving the daily forecast at 6 AM.

×

10-Day Weather Forecast

No radar image for this location.
×

Almanac

Astronomy

Jul. 20, 2019 Rise Set
Actual Time
Civil Twilight
Nautical Twilight
Astronomical Twilight
Moon
Length of Visible Light
Length of Day
Tomorrow will be .
, % of the Moon is Illuminated

Today's Extremes

Country Highs Country Lows

Community

WunderPhotos

Category 6

Welcome to Category 6. This is the collective home for Weather Underground's featured writeups by Dr. Jeff Masters (right), Bob Henson (left), Chris Burt, and other regular contributors.

Nearby

Air Quality

  Air Quality AQ Index Pollutant
Not available.

Snow Depth

Station Depth Elevation

Earthquake Activity

City Distance Mag. Time & Date
Minimum magnitude displayed is 2.5.

Coastal Water Temperatures

Place Temperature

Stations

Nearby Weather Stations

Station Location Temp. Windchill Dew Point Humidity Wind Precip. Elev Updated Type